sensor_id;sensor_type;location;lat;lon;timestamp;temperature;humidity
12926;DHT22;6529;50.566;9.774;2023-05-02T00:00:19;10.70;99.90
12926;DHT22;6529;50.566;9.774;2023-05-02T00:02:45;10.70;99.90
12926;DHT22;6529;50.566;9.774;2023-05-02T00:05:11;10.70;99.90
12926;DHT22;6529;50.566;9.774;2023-05-02T00:07:36;10.70;99.90
12926;DHT22;6529;50.566;9.774;2023-05-02T00:10:02;10.70;99.90
12926;DHT22;6529;50.566;9.774;2023-05-02T00:12:28;10.70;99.90
12926;DHT22;6529;50.566;9.774;2023-05-02T00:14:53;10.60;99.90
12926;DHT22;6529;50.566;9.774;2023-05-02T00:17:19;10.70;99.90
12926;DHT22;6529;50.566;9.774;2023-05-02T00:19:45;10.60;99.90
12926;DHT22;6529;50.566;9.774;2023-05-02T00:22:11;10.70;99.90
12926;DHT22;6529;50.566;9.774;2023-05-02T00:24:36;10.70;99.90
12926;DHT22;6529;50.566;9.774;2023-05-02T00:27:02;10.70;99.90
12926;DHT22;6529;50.566;9.774;2023-05-02T00:29:28;10.70;99.90
12926;DHT22;6529;50.566;9.774;2023-05-02T00:31:53;10.60;99.90
12926;DHT22;6529;50.566;9.774;2023-05-02T00:34:19;10.50;99.90
12926;DHT22;6529;50.566;9.774;2023-05-02T00:36:45;10.40;99.90
12926;DHT22;6529;50.566;9.774;2023-05-02T00:39:10;10.40;99.90
12926;DHT22;6529;50.566;9.774;2023-05-02T00:41:36;10.40;99.90
12926;DHT22;6529;50.566;9.774;2023-05-02T00:44:02;10.30;99.90
12926;DHT22;6529;50.566;9.774;2023-05-02T00:46:27;10.30;99.90
12926;DHT22;6529;50.566;9.774;2023-05-02T00:48:53;10.30;99.90
12926;DHT22;6529;50.566;9.774;2023-05-02T00:51:19;10.20;99.90
12926;DHT22;6529;50.566;9.774;2023-05-02T00:53:45;10.10;99.90
12926;DHT22;6529;50.566;9.774;2023-05-02T00:56:10;10.10;99.90
12926;DHT22;6529;50.566;9.774;2023-05-02T00:58:37;10.10;99.90
12926;DHT22;6529;50.566;9.774;2023-05-02T01:01:37;10.20;99.90
12926;DHT22;6529;50.566;9.774;2023-05-02T01:04:52;10.30;99.90
12926;DHT22;6529;50.566;9.774;2023-05-02T01:12:51;10.20;99.90
12926;DHT22;6529;50.566;9.774;2023-05-02T01:15:21;10.20;99.90
12926;DHT22;6529;50.566;9.774;2023-05-02T01:17:48;10.20;99.90
12926;DHT22;6529;50.566;9.774;2023-05-02T01:20:19;10.20;99.90
12926;DHT22;6529;50.566;9.774;2023-05-02T01:22:46;10.20;99.90
12926;DHT22;6529;50.566;9.774;2023-05-02T01:30:19;10.20;99.90
12926;DHT22;6529;50.566;9.774;2023-05-02T01:32:46;10.20;99.90
12926;DHT22;6529;50.566;9.774;2023-05-02T01:35:15;10.20;99.90
12926;DHT22;6529;50.566;9.774;2023-05-02T01:37:42;10.10;99.90
12926;DHT22;6529;50.566;9.774;2023-05-02T01:40:10;10.10;99.90
12926;DHT22;6529;50.566;9.774;2023-05-02T01:42:37;10.20;99.90
12926;DHT22;6529;50.566;9.774;2023-05-02T01:45:04;10.20;99.90
12926;DHT22;6529;50.566;9.774;2023-05-02T01:47:32;10.10;99.90
12926;DHT22;6529;50.566;9.774;2023-05-02T01:50:00;10.00;99.90
12926;DHT22;6529;50.566;9.774;2023-05-02T01:52:28;10.00;99.90
12926;DHT22;6529;50.566;9.774;2023-05-02T01:54:56;10.00;99.90
12926;DHT22;6529;50.566;9.774;2023-05-02T01:57:23;9.90;99.90
12926;DHT22;6529;50.566;9.774;2023-05-02T01:59:49;9.90;99.90
12926;DHT22;6529;50.566;9.774;2023-05-02T02:02:16;10.00;99.90
12926;DHT22;6529;50.566;9.774;2023-05-02T02:04:43;9.90;99.90
12926;DHT22;6529;50.566;9.774;2023-05-02T02:07:12;9.90;99.90
12926;DHT22;6529;50.566;9.774;2023-05-02T02:09:38;10.00;99.90
12926;DHT22;6529;50.566;9.774;2023-05-02T02:12:06;9.90;99.90
12926;DHT22;6529;50.566;9.774;2023-05-02T02:14:35;10.10;99.90
12926;DHT22;6529;50.566;9.774;2023-05-02T02:17:08;10.10;99.90
12926;DHT22;6529;50.566;9.774;2023-05-02T02:19:38;10.20;99.90
12926;DHT22;6529;50.566;9.774;2023-05-02T02:22:07;10.20;99.90
12926;DHT22;6529;50.566;9.774;2023-05-02T02:24:35;10.20;99.90
12926;DHT22;6529;50.566;9.774;2023-05-02T02:27:02;10.10;99.90
12926;DHT22;6529;50.566;9.774;2023-05-02T02:29:27;10.10;99.90
12926;DHT22;6529;50.566;9.774;2023-05-02T02:31:53;10.00;99.90
12926;DHT22;6529;50.566;9.774;2023-05-02T02:34:20;10.00;99.90
12926;DHT22;6529;50.566;9.774;2023-05-02T02:37:14;10.10;99.90
12926;DHT22;6529;50.566;9.774;2023-05-02T02:42:17;9.90;99.90
12926;DHT22;6529;50.566;9.774;2023-05-02T02:44:55;9.90;99.90
12926;DHT22;6529;50.566;9.774;2023-05-02T02:50:30;9.80;99.90
12926;DHT22;6529;50.566;9.774;2023-05-02T02:53:03;9.80;99.90
12926;DHT22;6529;50.566;9.774;2023-05-02T03:01:17;9.80;99.90
12926;DHT22;6529;50.566;9.774;2023-05-02T03:03:44;9.70;99.90
12926;DHT22;6529;50.566;9.774;2023-05-02T03:06:11;9.80;99.90
12926;DHT22;6529;50.566;9.774;2023-05-02T03:08:38;9.80;99.90
12926;DHT22;6529;50.566;9.774;2023-05-02T03:11:04;9.80;99.90
12926;DHT22;6529;50.566;9.774;2023-05-02T03:13:30;9.90;99.90
12926;DHT22;6529;50.566;9.774;2023-05-02T03:18:36;9.70;99.90
12926;DHT22;6529;50.566;9.774;2023-05-02T03:21:02;9.70;99.90
12926;DHT22;6529;50.566;9.774;2023-05-02T03:23:27;9.60;99.90
12926;DHT22;6529;50.566;9.774;2023-05-02T03:25:53;9.60;99.90
12926;DHT22;6529;50.566;9.774;2023-05-02T03:28:19;9.60;99.90
12926;DHT22;6529;50.566;9.774;2023-05-02T03:30:44;9.40;99.90
12926;DHT22;6529;50.566;9.774;2023-05-02T03:33:10;9.40;99.90
12926;DHT22;6529;50.566;9.774;2023-05-02T03:35:35;9.30;99.90
12926;DHT22;6529;50.566;9.774;2023-05-02T03:38:01;9.20;99.90
12926;DHT22;6529;50.566;9.774;2023-05-02T03:40:27;9.20;99.90
12926;DHT22;6529;50.566;9.774;2023-05-02T03:42:52;9.30;99.90
12926;DHT22;6529;50.566;9.774;2023-05-02T03:45:18;9.20;99.90
12926;DHT22;6529;50.566;9.774;2023-05-02T03:47:43;9.10;99.90
12926;DHT22;6529;50.566;9.774;2023-05-02T03:50:09;9.20;99.90
12926;DHT22;6529;50.566;9.774;2023-05-02T03:52:35;9.20;99.90
12926;DHT22;6529;50.566;9.774;2023-05-02T03:55:01;9.20;99.90
12926;DHT22;6529;50.566;9.774;2023-05-02T03:57:29;9.20;99.90
12926;DHT22;6529;50.566;9.774;2023-05-02T03:59:55;9.10;99.90
12926;DHT22;6529;50.566;9.774;2023-05-02T04:02:20;9.20;99.90
12926;DHT22;6529;50.566;9.774;2023-05-02T04:04:46;9.20;99.90
12926;DHT22;6529;50.566;9.774;2023-05-02T04:07:11;9.20;99.90
12926;DHT22;6529;50.566;9.774;2023-05-02T04:09:42;9.20;99.90
12926;DHT22;6529;50.566;9.774;2023-05-02T04:12:08;9.20;99.90
12926;DHT22;6529;50.566;9.774;2023-05-02T04:14:34;9.30;99.90
12926;DHT22;6529;50.566;9.774;2023-05-02T04:16:59;9.20;99.90
12926;DHT22;6529;50.566;9.774;2023-05-02T04:19:25;9.10;99.90
12926;DHT22;6529;50.566;9.774;2023-05-02T04:21:50;9.10;99.90
12926;DHT22;6529;50.566;9.774;2023-05-02T04:24:16;9.00;99.90
12926;DHT22;6529;50.566;9.774;2023-05-02T04:26:41;9.00;99.90
12926;DHT22;6529;50.566;9.774;2023-05-02T04:29:07;8.90;99.90
12926;DHT22;6529;50.566;9.774;2023-05-02T04:31:33;8.90;99.90
12926;DHT22;6529;50.566;9.774;2023-05-02T04:33:58;8.90;99.90
12926;DHT22;6529;50.566;9.774;2023-05-02T04:36:24;9.00;99.90
12926;DHT22;6529;50.566;9.774;2023-05-02T04:38:53;9.00;99.90
12926;DHT22;6529;50.566;9.774;2023-05-02T04:41:19;9.00;99.90
12926;DHT22;6529;50.566;9.774;2023-05-02T04:43:45;9.00;99.90
12926;DHT22;6529;50.566;9.774;2023-05-02T04:46:10;9.00;99.90
12926;DHT22;6529;50.566;9.774;2023-05-02T04:48:36;9.10;99.90
12926;DHT22;6529;50.566;9.774;2023-05-02T04:51:06;9.10;99.90
12926;DHT22;6529;50.566;9.774;2023-05-02T04:53:32;9.20;99.90
12926;DHT22;6529;50.566;9.774;2023-05-02T04:55:58;9.30;99.90
12926;DHT22;6529;50.566;9.774;2023-05-02T04:58:23;9.30;99.90
12926;DHT22;6529;50.566;9.774;2023-05-02T05:00:49;9.40;99.90
12926;DHT22;6529;50.566;9.774;2023-05-02T05:03:14;9.40;99.90
12926;DHT22;6529;50.566;9.774;2023-05-02T05:05:40;9.50;99.90
12926;DHT22;6529;50.566;9.774;2023-05-02T05:08:06;9.50;99.90
12926;DHT22;6529;50.566;9.774;2023-05-02T05:10:32;9.50;99.90
12926;DHT22;6529;50.566;9.774;2023-05-02T05:12:57;9.60;99.90
12926;DHT22;6529;50.566;9.774;2023-05-02T05:15:23;9.80;99.90
12926;DHT22;6529;50.566;9.774;2023-05-02T05:17:50;9.90;99.90
12926;DHT22;6529;50.566;9.774;2023-05-02T05:20:16;9.90;99.90
12926;DHT22;6529;50.566;9.774;2023-05-02T05:22:41;10.00;99.90
12926;DHT22;6529;50.566;9.774;2023-05-02T05:25:08;10.00;99.90
12926;DHT22;6529;50.566;9.774;2023-05-02T05:27:34;10.10;99.90
12926;DHT22;6529;50.566;9.774;2023-05-02T05:30:00;10.20;99.90
12926;DHT22;6529;50.566;9.774;2023-05-02T05:32:26;10.20;99.90
12926;DHT22;6529;50.566;9.774;2023-05-02T05:34:52;10.20;99.90
12926;DHT22;6529;50.566;9.774;2023-05-02T05:37:18;10.20;99.90
12926;DHT22;6529;50.566;9.774;2023-05-02T05:39:44;10.50;99.90
12926;DHT22;6529;50.566;9.774;2023-05-02T05:42:10;10.80;99.90
12926;DHT22;6529;50.566;9.774;2023-05-02T05:44:36;11.20;99.90
12926;DHT22;6529;50.566;9.774;2023-05-02T05:47:02;11.50;99.90
12926;DHT22;6529;50.566;9.774;2023-05-02T05:49:28;11.70;99.90
12926;DHT22;6529;50.566;9.774;2023-05-02T05:51:53;11.60;99.90
12926;DHT22;6529;50.566;9.774;2023-05-02T05:54:19;11.40;99.90
12926;DHT22;6529;50.566;9.774;2023-05-02T05:56:45;11.20;99.90
12926;DHT22;6529;50.566;9.774;2023-05-02T05:59:11;11.20;99.90
12926;DHT22;6529;50.566;9.774;2023-05-02T06:01:36;11.20;99.90
12926;DHT22;6529;50.566;9.774;2023-05-02T06:04:02;11.20;99.90
12926;DHT22;6529;50.566;9.774;2023-05-02T06:06:29;11.10;99.90
12926;DHT22;6529;50.566;9.774;2023-05-02T06:08:56;11.10;99.90
12926;DHT22;6529;50.566;9.774;2023-05-02T06:11:22;11.10;99.90
12926;DHT22;6529;50.566;9.774;2023-05-02T06:13:51;11.10;99.90
12926;DHT22;6529;50.566;9.774;2023-05-02T06:16:17;11.10;99.90
12926;DHT22;6529;50.566;9.774;2023-05-02T06:18:43;11.20;99.90
12926;DHT22;6529;50.566;9.774;2023-05-02T06:21:09;11.20;99.90
12926;DHT22;6529;50.566;9.774;2023-05-02T06:23:35;11.30;99.90
12926;DHT22;6529;50.566;9.774;2023-05-02T06:26:01;11.40;99.90
12926;DHT22;6529;50.566;9.774;2023-05-02T06:28:28;11.40;99.90
12926;DHT22;6529;50.566;9.774;2023-05-02T06:31:01;11.50;99.90
12926;DHT22;6529;50.566;9.774;2023-05-02T06:33:28;11.50;99.90
12926;DHT22;6529;50.566;9.774;2023-05-02T06:35:54;11.60;99.90
12926;DHT22;6529;50.566;9.774;2023-05-02T06:38:20;11.70;99.90
12926;DHT22;6529;50.566;9.774;2023-05-02T06:40:46;11.70;99.90
12926;DHT22;6529;50.566;9.774;2023-05-02T06:43:12;11.80;99.90
12926;DHT22;6529;50.566;9.774;2023-05-02T06:45:38;11.90;99.90
12926;DHT22;6529;50.566;9.774;2023-05-02T06:48:04;11.90;99.90
12926;DHT22;6529;50.566;9.774;2023-05-02T06:50:30;12.00;76.90
12926;DHT22;6529;50.566;9.774;2023-05-02T06:52:56;12.10;99.90
12926;DHT22;6529;50.566;9.774;2023-05-02T06:55:21;12.10;1.00
12926;DHT22;6529;50.566;9.774;2023-05-02T06:57:50;12.10;1.00
12926;DHT22;6529;50.566;9.774;2023-05-02T07:00:18;12.20;1.00
12926;DHT22;6529;50.566;9.774;2023-05-02T07:02:45;12.30;1.00
12926;DHT22;6529;50.566;9.774;2023-05-02T07:05:11;12.30;1.00
12926;DHT22;6529;50.566;9.774;2023-05-02T07:07:37;12.30;1.00
12926;DHT22;6529;50.566;9.774;2023-05-02T07:10:03;12.30;1.00
12926;DHT22;6529;50.566;9.774;2023-05-02T07:12:29;12.30;1.00
12926;DHT22;6529;50.566;9.774;2023-05-02T07:14:54;12.30;1.00
12926;DHT22;6529;50.566;9.774;2023-05-02T07:17:20;12.30;1.00
12926;DHT22;6529;50.566;9.774;2023-05-02T07:19:46;12.30;1.00
12926;DHT22;6529;50.566;9.774;2023-05-02T07:22:11;12.30;1.00
12926;DHT22;6529;50.566;9.774;2023-05-02T07:24:41;12.40;1.00
12926;DHT22;6529;50.566;9.774;2023-05-02T07:27:08;12.40;1.00
12926;DHT22;6529;50.566;9.774;2023-05-02T07:29:34;12.50;1.00
12926;DHT22;6529;50.566;9.774;2023-05-02T07:32:00;12.60;1.00
12926;DHT22;6529;50.566;9.774;2023-05-02T07:34:25;12.80;1.00
12926;DHT22;6529;50.566;9.774;2023-05-02T07:36:51;13.00;1.00
12926;DHT22;6529;50.566;9.774;2023-05-02T07:39:16;13.30;1.00
12926;DHT22;6529;50.566;9.774;2023-05-02T07:41:42;13.20;1.00
12926;DHT22;6529;50.566;9.774;2023-05-02T07:44:07;13.10;99.90
12926;DHT22;6529;50.566;9.774;2023-05-02T07:46:33;13.00;99.90
12926;DHT22;6529;50.566;9.774;2023-05-02T07:48:59;13.00;1.00
12926;DHT22;6529;50.566;9.774;2023-05-02T07:51:24;13.00;99.90
12926;DHT22;6529;50.566;9.774;2023-05-02T07:53:51;13.00;99.90
12926;DHT22;6529;50.566;9.774;2023-05-02T07:56:23;13.20;1.00
12926;DHT22;6529;50.566;9.774;2023-05-02T07:58:49;13.20;99.90
12926;DHT22;6529;50.566;9.774;2023-05-02T08:01:16;13.20;99.90
12926;DHT22;6529;50.566;9.774;2023-05-02T08:03:42;13.30;99.90
12926;DHT22;6529;50.566;9.774;2023-05-02T08:06:07;13.30;99.90
12926;DHT22;6529;50.566;9.774;2023-05-02T08:08:34;13.50;1.00
12926;DHT22;6529;50.566;9.774;2023-05-02T08:11:00;13.60;1.00
12926;DHT22;6529;50.566;9.774;2023-05-02T08:13:25;13.50;1.00
12926;DHT22;6529;50.566;9.774;2023-05-02T08:15:51;13.50;1.00
12926;DHT22;6529;50.566;9.774;2023-05-02T08:18:25;13.50;99.90
12926;DHT22;6529;50.566;9.774;2023-05-02T08:20:51;13.40;1.00
12926;DHT22;6529;50.566;9.774;2023-05-02T08:23:17;13.20;99.90
12926;DHT22;6529;50.566;9.774;2023-05-02T08:25:43;13.20;99.90
12926;DHT22;6529;50.566;9.774;2023-05-02T08:28:08;13.10;99.90
12926;DHT22;6529;50.566;9.774;2023-05-02T08:30:34;12.90;1.00
12926;DHT22;6529;50.566;9.774;2023-05-02T08:33:00;12.80;44.60
12926;DHT22;6529;50.566;9.774;2023-05-02T08:35:28;12.80;99.90
12926;DHT22;6529;50.566;9.774;2023-05-02T08:37:54;12.70;99.90
12926;DHT22;6529;50.566;9.774;2023-05-02T08:40:21;12.60;19.00
12926;DHT22;6529;50.566;9.774;2023-05-02T08:42:47;12.60;1.00
12926;DHT22;6529;50.566;9.774;2023-05-02T08:45:13;12.70;99.90
12926;DHT22;6529;50.566;9.774;2023-05-02T08:47:40;12.70;80.30
12926;DHT22;6529;50.566;9.774;2023-05-02T08:50:08;12.70;1.00
12926;DHT22;6529;50.566;9.774;2023-05-02T08:52:35;12.70;99.90
12926;DHT22;6529;50.566;9.774;2023-05-02T08:55:02;12.70;1.00
12926;DHT22;6529;50.566;9.774;2023-05-02T08:57:29;12.90;1.00
12926;DHT22;6529;50.566;9.774;2023-05-02T08:59:57;12.90;99.90
12926;DHT22;6529;50.566;9.774;2023-05-02T09:05:19;13.30;1.00
12926;DHT22;6529;50.566;9.774;2023-05-02T09:07:49;13.50;99.90
12926;DHT22;6529;50.566;9.774;2023-05-02T09:10:16;13.80;1.00
12926;DHT22;6529;50.566;9.774;2023-05-02T09:12:41;14.00;1.00
12926;DHT22;6529;50.566;9.774;2023-05-02T09:15:15;14.10;1.00
12926;DHT22;6529;50.566;9.774;2023-05-02T09:17:43;14.20;1.00
12926;DHT22;6529;50.566;9.774;2023-05-02T09:20:13;14.20;3.50
12926;DHT22;6529;50.566;9.774;2023-05-02T09:22:48;14.10;40.70
12926;DHT22;6529;50.566;9.774;2023-05-02T09:25:14;14.20;1.00
12926;DHT22;6529;50.566;9.774;2023-05-02T09:27:53;14.20;87.60
12926;DHT22;6529;50.566;9.774;2023-05-02T09:30:25;14.00;1.00
12926;DHT22;6529;50.566;9.774;2023-05-02T09:32:51;13.90;99.90
12926;DHT22;6529;50.566;9.774;2023-05-02T09:35:20;13.80;1.00
12926;DHT22;6529;50.566;9.774;2023-05-02T09:37:57;13.70;18.20
12926;DHT22;6529;50.566;9.774;2023-05-02T09:40:24;13.90;1.00
12926;DHT22;6529;50.566;9.774;2023-05-02T09:42:50;14.50;75.20
12926;DHT22;6529;50.566;9.774;2023-05-02T09:45:24;15.10;1.00
12926;DHT22;6529;50.566;9.774;2023-05-02T09:47:50;15.10;1.00
12926;DHT22;6529;50.566;9.774;2023-05-02T09:50:36;15.10;99.90
12926;DHT22;6529;50.566;9.774;2023-05-02T09:53:07;15.30;99.90
12926;DHT22;6529;50.566;9.774;2023-05-02T09:55:34;15.10;1.00
12926;DHT22;6529;50.566;9.774;2023-05-02T09:58:00;15.00;99.90
12926;DHT22;6529;50.566;9.774;2023-05-02T10:00:42;14.90;1.00
12926;DHT22;6529;50.566;9.774;2023-05-02T10:03:09;14.80;99.90
12926;DHT22;6529;50.566;9.774;2023-05-02T10:05:38;14.80;99.90
12926;DHT22;6529;50.566;9.774;2023-05-02T10:08:05;14.90;1.00
12926;DHT22;6529;50.566;9.774;2023-05-02T10:10:36;15.20;49.10
12926;DHT22;6529;50.566;9.774;2023-05-02T10:13:06;15.40;1.00
12926;DHT22;6529;50.566;9.774;2023-05-02T10:15:33;15.90;1.00
12926;DHT22;6529;50.566;9.774;2023-05-02T10:17:59;16.20;1.00
12926;DHT22;6529;50.566;9.774;2023-05-02T10:20:42;16.30;1.00
12926;DHT22;6529;50.566;9.774;2023-05-02T10:23:09;16.40;73.70
12926;DHT22;6529;50.566;9.774;2023-05-02T10:25:35;16.60;1.00
12926;DHT22;6529;50.566;9.774;2023-05-02T10:28:01;16.60;1.00
12926;DHT22;6529;50.566;9.774;2023-05-02T10:30:28;16.20;99.90
12926;DHT22;6529;50.566;9.774;2023-05-02T10:32:55;16.40;99.90
12926;DHT22;6529;50.566;9.774;2023-05-02T10:35:24;17.00;1.00
12926;DHT22;6529;50.566;9.774;2023-05-02T10:37:51;17.80;56.70
12926;DHT22;6529;50.566;9.774;2023-05-02T10:40:17;18.10;99.90
12926;DHT22;6529;50.566;9.774;2023-05-02T10:42:45;18.40;1.00
12926;DHT22;6529;50.566;9.774;2023-05-02T10:48:20;17.80;1.00
12926;DHT22;6529;50.566;9.774;2023-05-02T10:50:57;17.20;99.90
12926;DHT22;6529;50.566;9.774;2023-05-02T10:53:31;16.40;99.90
12926;DHT22;6529;50.566;9.774;2023-05-02T10:56:16;15.40;1.00
12926;DHT22;6529;50.566;9.774;2023-05-02T10:58:44;14.90;1.00
12926;DHT22;6529;50.566;9.774;2023-05-02T11:03:57;14.20;68.80
12926;DHT22;6529;50.566;9.774;2023-05-02T11:06:24;14.00;1.00
12926;DHT22;6529;50.566;9.774;2023-05-02T11:08:50;13.80;68.00
12926;DHT22;6529;50.566;9.774;2023-05-02T11:11:39;13.70;99.90
12926;DHT22;6529;50.566;9.774;2023-05-02T11:22:32;13.80;5.90
12926;DHT22;6529;50.566;9.774;2023-05-02T11:24:58;13.70;65.80
12926;DHT22;6529;50.566;9.774;2023-05-02T11:30:08;13.80;99.90
12926;DHT22;6529;50.566;9.774;2023-05-02T11:35:22;13.90;99.90
12926;DHT22;6529;50.566;9.774;2023-05-02T11:37:58;14.10;1.00
12926;DHT22;6529;50.566;9.774;2023-05-02T11:40:25;14.40;99.90
12926;DHT22;6529;50.566;9.774;2023-05-02T11:42:52;14.70;7.20
12926;DHT22;6529;50.566;9.774;2023-05-02T11:45:17;15.00;1.00
12926;DHT22;6529;50.566;9.774;2023-05-02T11:47:45;15.40;99.90
12926;DHT22;6529;50.566;9.774;2023-05-02T11:50:11;15.90;71.30
12926;DHT22;6529;50.566;9.774;2023-05-02T11:52:38;16.40;99.90
12926;DHT22;6529;50.566;9.774;2023-05-02T11:55:10;16.70;1.00
12926;DHT22;6529;50.566;9.774;2023-05-02T11:57:36;16.70;1.00
12926;DHT22;6529;50.566;9.774;2023-05-02T12:00:02;16.50;1.00
12926;DHT22;6529;50.566;9.774;2023-05-02T12:05:05;16.00;1.00
12926;DHT22;6529;50.566;9.774;2023-05-02T12:07:45;16.10;1.00
12926;DHT22;6529;50.566;9.774;2023-05-02T12:10:12;16.50;1.00
12926;DHT22;6529;50.566;9.774;2023-05-02T12:12:39;17.10;1.00
12926;DHT22;6529;50.566;9.774;2023-05-02T12:15:07;17.40;20.30
12926;DHT22;6529;50.566;9.774;2023-05-02T12:17:36;17.50;1.00
12926;DHT22;6529;50.566;9.774;2023-05-02T12:20:03;17.40;1.00
12926;DHT22;6529;50.566;9.774;2023-05-02T12:22:29;17.00;1.00
12926;DHT22;6529;50.566;9.774;2023-05-02T12:24:55;16.70;59.10
12926;DHT22;6529;50.566;9.774;2023-05-02T12:27:21;16.60;99.90
12926;DHT22;6529;50.566;9.774;2023-05-02T12:29:47;16.40;99.90
12926;DHT22;6529;50.566;9.774;2023-05-02T12:32:14;16.20;99.90
12926;DHT22;6529;50.566;9.774;2023-05-02T12:34:50;15.80;99.90
12926;DHT22;6529;50.566;9.774;2023-05-02T12:37:21;15.70;99.90
12926;DHT22;6529;50.566;9.774;2023-05-02T12:39:48;15.70;99.90
12926;DHT22;6529;50.566;9.774;2023-05-02T12:42:15;15.70;99.90
12926;DHT22;6529;50.566;9.774;2023-05-02T12:44:46;15.70;99.90
12926;DHT22;6529;50.566;9.774;2023-05-02T12:47:13;15.60;99.90
12926;DHT22;6529;50.566;9.774;2023-05-02T12:49:52;15.60;99.90
12926;DHT22;6529;50.566;9.774;2023-05-02T12:52:18;15.60;99.90
12926;DHT22;6529;50.566;9.774;2023-05-02T12:54:45;15.30;99.90
12926;DHT22;6529;50.566;9.774;2023-05-02T12:57:21;15.20;99.90
12926;DHT22;6529;50.566;9.774;2023-05-02T12:59:51;15.10;1.00
12926;DHT22;6529;50.566;9.774;2023-05-02T13:02:17;15.10;1.00
12926;DHT22;6529;50.566;9.774;2023-05-02T13:04:42;15.10;99.90
12926;DHT22;6529;50.566;9.774;2023-05-02T13:07:08;15.10;1.00
12926;DHT22;6529;50.566;9.774;2023-05-02T13:09:33;15.10;1.00
12926;DHT22;6529;50.566;9.774;2023-05-02T13:11:59;15.20;1.00
12926;DHT22;6529;50.566;9.774;2023-05-02T13:14:25;15.30;1.00
12926;DHT22;6529;50.566;9.774;2023-05-02T13:16:50;15.50;99.90
12926;DHT22;6529;50.566;9.774;2023-05-02T13:19:22;15.60;99.90
12926;DHT22;6529;50.566;9.774;2023-05-02T13:21:48;16.10;99.90
12926;DHT22;6529;50.566;9.774;2023-05-02T13:24:14;17.10;99.90
12926;DHT22;6529;50.566;9.774;2023-05-02T13:26:41;18.20;99.90
12926;DHT22;6529;50.566;9.774;2023-05-02T13:29:07;18.50;1.00
12926;DHT22;6529;50.566;9.774;2023-05-02T13:31:36;18.70;1.00
12926;DHT22;6529;50.566;9.774;2023-05-02T13:34:03;19.10;1.00
12926;DHT22;6529;50.566;9.774;2023-05-02T13:36:28;19.50;1.00
12926;DHT22;6529;50.566;9.774;2023-05-02T13:38:54;19.70;1.00
12926;DHT22;6529;50.566;9.774;2023-05-02T13:41:20;19.50;1.00
12926;DHT22;6529;50.566;9.774;2023-05-02T13:43:46;19.30;1.00
12926;DHT22;6529;50.566;9.774;2023-05-02T13:46:11;19.40;1.00
12926;DHT22;6529;50.566;9.774;2023-05-02T13:48:37;19.60;1.00
12926;DHT22;6529;50.566;9.774;2023-05-02T13:51:02;19.50;1.00
12926;DHT22;6529;50.566;9.774;2023-05-02T13:53:28;19.10;99.90
12926;DHT22;6529;50.566;9.774;2023-05-02T13:55:53;18.60;1.00
12926;DHT22;6529;50.566;9.774;2023-05-02T13:58:19;18.10;1.00
12926;DHT22;6529;50.566;9.774;2023-05-02T14:00:45;18.00;1.00
12926;DHT22;6529;50.566;9.774;2023-05-02T14:03:11;17.70;1.00
12926;DHT22;6529;50.566;9.774;2023-05-02T14:05:37;17.20;1.00
12926;DHT22;6529;50.566;9.774;2023-05-02T14:08:08;17.10;1.00
12926;DHT22;6529;50.566;9.774;2023-05-02T14:10:33;17.00;1.00
12926;DHT22;6529;50.566;9.774;2023-05-02T14:13:00;17.50;57.50
12926;DHT22;6529;50.566;9.774;2023-05-02T14:15:26;18.20;1.00
12926;DHT22;6529;50.566;9.774;2023-05-02T14:17:51;18.00;1.00
12926;DHT22;6529;50.566;9.774;2023-05-02T14:20:17;18.10;1.00
12926;DHT22;6529;50.566;9.774;2023-05-02T14:22:43;18.30;1.00
12926;DHT22;6529;50.566;9.774;2023-05-02T14:25:09;18.30;1.00
12926;DHT22;6529;50.566;9.774;2023-05-02T14:27:34;17.80;1.00
12926;DHT22;6529;50.566;9.774;2023-05-02T14:30:00;17.20;30.20
12926;DHT22;6529;50.566;9.774;2023-05-02T14:32:26;16.80;99.90
12926;DHT22;6529;50.566;9.774;2023-05-02T14:34:51;16.40;99.90
12926;DHT22;6529;50.566;9.774;2023-05-02T14:37:17;16.10;1.00
12926;DHT22;6529;50.566;9.774;2023-05-02T14:39:43;15.80;1.00
12926;DHT22;6529;50.566;9.774;2023-05-02T14:42:10;15.70;99.90
12926;DHT22;6529;50.566;9.774;2023-05-02T14:44:35;15.60;59.40
12926;DHT22;6529;50.566;9.774;2023-05-02T14:47:01;15.50;99.90
12926;DHT22;6529;50.566;9.774;2023-05-02T14:49:27;15.60;99.90
12926;DHT22;6529;50.566;9.774;2023-05-02T14:51:53;15.90;11.30
12926;DHT22;6529;50.566;9.774;2023-05-02T14:54:18;16.70;1.00
12926;DHT22;6529;50.566;9.774;2023-05-02T14:56:44;17.60;99.90
12926;DHT22;6529;50.566;9.774;2023-05-02T14:59:10;17.60;99.90
12926;DHT22;6529;50.566;9.774;2023-05-02T15:01:36;17.30;99.90
12926;DHT22;6529;50.566;9.774;2023-05-02T15:04:02;17.10;99.90
12926;DHT22;6529;50.566;9.774;2023-05-02T15:06:30;16.70;99.90
12926;DHT22;6529;50.566;9.774;2023-05-02T15:08:56;16.40;99.90
12926;DHT22;6529;50.566;9.774;2023-05-02T15:11:21;16.00;1.00
12926;DHT22;6529;50.566;9.774;2023-05-02T15:13:47;15.70;1.00
12926;DHT22;6529;50.566;9.774;2023-05-02T15:16:13;15.60;46.90
12926;DHT22;6529;50.566;9.774;2023-05-02T15:18:38;15.40;55.00
12926;DHT22;6529;50.566;9.774;2023-05-02T15:21:04;15.10;99.90
12926;DHT22;6529;50.566;9.774;2023-05-02T15:23:30;14.80;1.00
12926;DHT22;6529;50.566;9.774;2023-05-02T15:25:55;14.70;1.00
12926;DHT22;6529;50.566;9.774;2023-05-02T15:28:21;14.60;99.90
12926;DHT22;6529;50.566;9.774;2023-05-02T15:30:47;14.70;1.00
12926;DHT22;6529;50.566;9.774;2023-05-02T15:33:13;14.70;1.00
12926;DHT22;6529;50.566;9.774;2023-05-02T15:35:39;14.70;99.90
12926;DHT22;6529;50.566;9.774;2023-05-02T15:38:04;14.50;99.90
12926;DHT22;6529;50.566;9.774;2023-05-02T15:40:31;14.40;99.90
12926;DHT22;6529;50.566;9.774;2023-05-02T15:42:56;14.50;1.00
12926;DHT22;6529;50.566;9.774;2023-05-02T15:45:22;14.50;99.90
12926;DHT22;6529;50.566;9.774;2023-05-02T15:47:48;14.80;99.90
12926;DHT22;6529;50.566;9.774;2023-05-02T15:50:13;15.20;1.00
12926;DHT22;6529;50.566;9.774;2023-05-02T15:52:39;15.40;1.00
12926;DHT22;6529;50.566;9.774;2023-05-02T15:55:05;15.50;1.00
12926;DHT22;6529;50.566;9.774;2023-05-02T15:57:30;15.20;1.00
12926;DHT22;6529;50.566;9.774;2023-05-02T15:59:56;15.00;1.00
12926;DHT22;6529;50.566;9.774;2023-05-02T16:02:22;14.80;99.90
12926;DHT22;6529;50.566;9.774;2023-05-02T16:04:47;14.70;99.90
12926;DHT22;6529;50.566;9.774;2023-05-02T16:07:13;14.50;99.90
12926;DHT22;6529;50.566;9.774;2023-05-02T16:09:38;14.50;84.20
12926;DHT22;6529;50.566;9.774;2023-05-02T16:12:04;14.30;1.00
12926;DHT22;6529;50.566;9.774;2023-05-02T16:14:31;14.10;1.00
12926;DHT22;6529;50.566;9.774;2023-05-02T16:16:57;13.80;26.40
12926;DHT22;6529;50.566;9.774;2023-05-02T16:19:22;13.60;99.90
12926;DHT22;6529;50.566;9.774;2023-05-02T16:21:48;13.60;99.90
12926;DHT22;6529;50.566;9.774;2023-05-02T16:24:14;13.60;99.90
12926;DHT22;6529;50.566;9.774;2023-05-02T16:26:39;13.60;99.90
12926;DHT22;6529;50.566;9.774;2023-05-02T16:29:05;13.60;99.90
12926;DHT22;6529;50.566;9.774;2023-05-02T16:31:31;13.70;99.90
12926;DHT22;6529;50.566;9.774;2023-05-02T16:33:57;13.70;99.90
12926;DHT22;6529;50.566;9.774;2023-05-02T16:36:23;13.80;99.90
12926;DHT22;6529;50.566;9.774;2023-05-02T16:38:49;14.00;1.00
12926;DHT22;6529;50.566;9.774;2023-05-02T16:41:15;14.00;1.00
12926;DHT22;6529;50.566;9.774;2023-05-02T16:43:41;14.00;1.00